Maimiti — PBIJ — position and weather

sailwx.info

Track history (hours):
 
Tides and Currents Weather Stations Pressure Air Temp Water Temp Dewpoint Dewpoint Depression Visibility Wind Speed Wind Dir Waves Ship Positions

Maimiti

Last reported at 2015-Jul-29 15:10 UTC. Time now 2015-Jul-30 16:10 UTC.
Position N 55°35' E 007°02'.

Length 35 m; draft 7 m.

Type: Tug. MMSI: 244850959.

Date/timePositionNaut miles runAvg speedWind from/ knotsBaromVisibWave heightAir tempDewpointWater temp
2015-Jul-29 15:10N 55°35' E 007°02'5 7.8
2015-Jul-29 14:33N 55°34' E 007°10'9 8.1
2015-Jul-29 13:25N 55°30' E 007°25'7 8.2
2015-Jul-29 12:33N 55°27' E 007°37'15 7.4
2015-Jul-29 10:30N 55°25' E 008°03'7 7.0
2015-Jul-29 09:33N 55°26' E 008°15'6 6.1
2015-Jul-29 08:33N 55°29' E 008°25'0 0.2
2015-Jul-29 07:16N 55°29' E 008°25'0 0.0
2015-Jul-29 06:25N 55°29' E 008°25'0 0.0
2015-Jul-29 05:31N 55°29' E 008°25'0 0.0
2015-Jul-29 04:28N 55°29' E 008°25'0 0.0
2015-Jul-29 03:31N 55°29' E 008°25'0 0.0
2015-Jul-29 02:31N 55°29' E 008°25'0 0.0
2015-Jul-29 01:30N 55°29' E 008°25'0 0.0
2015-Jul-29 00:18N 55°29' E 008°25'0 0.0
2015-Jul-28 23:30N 55°29' E 008°25'0 0.0
2015-Jul-28 22:30N 55°29' E 008°25'0 0.0
2015-Jul-28 21:33N 55°29' E 008°25'0 0.0
2015-Jul-28 20:33N 55°29' E 008°25'0 0.0
2015-Jul-28 19:33N 55°29' E 008°25'0 0.0
2015-Jul-28 18:33N 55°29' E 008°25'0 0.0
2015-Jul-28 17:21N 55°29' E 008°25'0 0.0
2015-Jul-28 16:33N 55°29' E 008°25'0 0.0
2015-Jul-28 15:33N 55°29' E 008°25'0 0.0
2015-Jul-28 14:21N 55°29' E 008°25'0 0.0
2015-Jul-28 13:09N 55°29' E 008°25'0 0.0
2015-Jul-28 12:27N 55°29' E 008°25'0 0.0
2015-Jul-28 11:24N 55°29' E 008°25'0 0.0
2015-Jul-28 10:24N 55°29' E 008°25'0 0.0
2015-Jul-28 09:27N 55°29' E 008°25'0 0.0
2015-Jul-28 08:27N 55°29' E 008°25'0 0.0
2015-Jul-28 07:30N 55°29' E 008°25'0 0.0
2015-Jul-28 06:27N 55°29' E 008°25'0 0.0
2015-Jul-28 05:30N 55°29' E 008°25'0 0.0
2015-Jul-28 04:12N 55°29' E 008°25'0 0.0
2015-Jul-28 03:30N 55°29' E 008°25'0 0.0
2015-Jul-28 02:33N 55°29' E 008°25'0 0.0
2015-Jul-28 01:33N 55°29' E 008°25'0 0.0
2015-Jul-28 00:33N 55°29' E 008°25'0 0.0
2015-Jul-27 23:18N 55°29' E 008°25'0 0.0
2015-Jul-27 22:33N 55°29' E 008°25'0 0.0
2015-Jul-27 21:33N 55°29' E 008°25'0 0.0
2015-Jul-27 20:33N 55°29' E 008°25'0 0.0
2015-Jul-27 19:33N 55°29' E 008°25'0 0.0
2015-Jul-27 18:21N 55°29' E 008°25'0 0.0
2015-Jul-27 17:24N 55°29' E 008°25'0 0.0
2015-Jul-27 16:18N 55°29' E 008°25'0 0.0
2015-Jul-27 15:33N 55°29' E 008°25'0 0.0
2015-Jul-27 14:21N 55°29' E 008°25'0 0.0
2015-Jul-27 13:23N 55°29' E 008°25'0 0.0
2015-Jul-27 12:23N 55°29' E 008°25'0 0.0
2015-Jul-27 11:26N 55°29' E 008°25'0 0.0
2015-Jul-27 10:23N 55°29' E 008°25'0 0.0
2015-Jul-27 07:11N 55°29' E 008°25'0 0.0
2015-Jul-27 06:29N 55°29' E 008°25'0 0.0
2015-Jul-27 05:29N 55°29' E 008°25'0 0.0
2015-Jul-27 04:29N 55°29' E 008°25'0 0.0
2015-Jul-27 03:29N 55°29' E 008°25'0 0.0
2015-Jul-27 02:32N 55°29' E 008°25'0 0.0
2015-Jul-27 01:29N 55°29' E 008°25'0 0.0
2015-Jul-27 00:29N 55°29' E 008°25'0 0.0
2015-Jul-26 23:32N 55°29' E 008°25'0 0.0
2015-Jul-26 22:32N 55°29' E 008°25'0 0.0
2015-Jul-26 21:32N 55°29' E 008°25'0 0.0
2015-Jul-26 20:29N 55°29' E 008°25'0 0.0
2015-Jul-26 19:32N 55°29' E 008°25'0 0.0
2015-Jul-26 18:32N 55°29' E 008°25'0 0.0
2015-Jul-26 17:32N 55°29' E 008°25'0 0.0
2015-Jul-26 16:32N 55°29' E 008°25'0 0.0
2015-Jul-26 15:32N 55°29' E 008°25'0 0.0
2015-Jul-26 14:05N 55°29' E 008°25'0 0.0
2015-Jul-26 13:23N 55°29' E 008°25'0 0.0
2015-Jul-26 12:23N 55°29' E 008°25'0 0.0
2015-Jul-26 11:23N 55°29' E 008°25'0 0.0
2015-Jul-26 10:26N 55°29' E 008°25'0 0.0
2015-Jul-26 09:08N 55°29' E 008°25'0 0.0
2015-Jul-26 08:11N 55°29' E 008°25'0 0.0
2015-Jul-26 07:29N 55°29' E 008°25'0 0.0
2015-Jul-26 06:29N 55°29' E 008°25'0 0.0
2015-Jul-26 05:29N 55°29' E 008°25'0 0.0
2015-Jul-26 04:26N 55°29' E 008°25'0 0.0
2015-Jul-26 03:29N 55°29' E 008°25'0 0.0
2015-Jul-26 02:29N 55°29' E 008°25'0 0.0
2015-Jul-26 01:26N 55°29' E 008°25'0 0.0
2015-Jul-26 00:25N 55°29' E 008°25'0 0.0
2015-Jul-25 23:13N 55°29' E 008°25'0 0.0
2015-Jul-25 22:28N 55°29' E 008°25'0 0.0
2015-Jul-25 21:28N 55°29' E 008°25'0 0.0
2015-Jul-25 20:19N 55°29' E 008°25'0 0.0
2015-Jul-25 19:28N 55°29' E 008°25'0 0.0
2015-Jul-25 18:31N 55°29' E 008°25'0 0.0
2015-Jul-25 17:16N 55°29' E 008°25'0 0.0
2015-Jul-25 16:31N 55°29' E 008°25'0 0.0
2015-Jul-25 15:22N 55°29' E 008°25'0 0.0
2015-Jul-25 14:22N 55°29' E 008°25'0 0.0
2015-Jul-25 13:22N 55°29' E 008°25'0 0.0
2015-Jul-25 12:07N 55°29' E 008°25'0 0.0
2015-Jul-25 11:25N 55°29' E 008°25'0 0.0
2015-Jul-25 10:25N 55°29' E 008°25'0 0.0
2015-Jul-25 09:22N 55°29' E 008°25'0 0.0
2015-Jul-25 08:22N 55°29' E 008°25'0 0.0
2015-Jul-25 07:25N 55°29' E 008°25'0 0.0
2015-Jul-25 06:28N 55°29' E 008°25'0 0.0
2015-Jul-25 05:25N 55°29' E 008°25'0 0.0
2015-Jul-25 04:28N 55°29' E 008°25'0 0.0
2015-Jul-25 03:13N 55°29' E 008°25'0 0.0
2015-Jul-25 02:13N 55°29' E 008°25'0 0.0
2015-Jul-25 01:25N 55°29' E 008°25'0 0.0
2015-Jul-25 00:31N 55°29' E 008°25'0 0.0
2015-Jul-24 23:31N 55°29' E 008°25'0 0.0
2015-Jul-24 22:16N 55°29' E 008°25'0 0.0
2015-Jul-24 21:31N 55°29' E 008°25'0 0.0
2015-Jul-24 20:19N 55°29' E 008°25'0 0.0
2015-Jul-24 19:31N 55°29' E 008°25'0 0.0
2015-Jul-24 18:31N 55°29' E 008°25'0 0.0
2015-Jul-24 17:31N 55°29' E 008°25'0 0.0
2015-Jul-24 16:31N 55°29' E 008°25'0 0.0
2015-Jul-24 15:31N 55°29' E 008°25'0 0.0
2015-Jul-24 14:22N 55°29' E 008°25'0 0.0
2015-Jul-24 13:34N 55°29' E 008°25'0 0.0
2015-Jul-24 12:33N 55°29' E 008°25'0 0.0
2015-Jul-24 11:33N 55°29' E 008°25'0 0.0
2015-Jul-24 10:24N 55°29' E 008°25'0 0.0
2015-Jul-24 09:24N 55°29' E 008°25'0 0.0
2015-Jul-24 08:24N 55°29' E 008°25'0 0.0
2015-Jul-24 07:21N 55°29' E 008°25'0 0.0
2015-Jul-24 06:12N 55°29' E 008°25'0 0.0
2015-Jul-24 05:27N 55°29' E 008°25'0 0.0
2015-Jul-24 04:27N 55°29' E 008°25'0 0.0
2015-Jul-24 03:12N 55°29' E 008°25'0 0.0
2015-Jul-24 02:24N 55°29' E 008°25'0 0.0
2015-Jul-24 01:27N 55°29' E 008°25'0 0.0
2015-Jul-24 00:30N 55°29' E 008°25'0 0.0
2015-Jul-23 23:27N 55°29' E 008°25'0 0.0
2015-Jul-23 22:30N 55°29' E 008°25'0 0.0
2015-Jul-23 21:30N 55°29' E 008°25'0 0.0
2015-Jul-23 20:30N 55°29' E 008°25'0 0.0
2015-Jul-23 19:30N 55°29' E 008°25'0 0.0
2015-Jul-23 18:33N 55°29' E 008°25'0 0.0
2015-Jul-23 17:33N 55°29' E 008°25'0 0.0
2015-Jul-23 16:33N 55°29' E 008°25'0 0.0
2015-Jul-23 15:21N 55°29' E 008°25'0 0.0
2015-Jul-23 14:30N 55°29' E 008°25'0 0.0
2015-Jul-23 13:21N 55°29' E 008°25'0 0.0
2015-Jul-23 12:18N 55°29' E 008°25'0 0.0
2015-Jul-23 11:33N 55°29' E 008°25'0 0.0
2015-Jul-23 10:33N 55°29' E 008°25'0 0.0
2015-Jul-23 09:33N 55°29' E 008°25'0 0.0
2015-Jul-23 08:21N 55°29' E 008°25'0 0.0
2015-Jul-23 07:21N 55°29' E 008°25'0 0.0
2015-Jul-23 06:21N 55°29' E 008°25'0 0.0
2015-Jul-23 05:24N 55°29' E 008°25'0 0.0
2015-Jul-23 04:24N 55°29' E 008°25'0 0.0
2015-Jul-23 03:27N 55°29' E 008°25'0 0.0
2015-Jul-23 02:27N 55°29' E 008°25'0 0.0
2015-Jul-23 01:12N 55°29' E 008°25'0 0.0
2015-Jul-23 00:29N 55°29' E 008°25'0 0.0
2015-Jul-22 23:23N 55°29' E 008°25'0 0.0
2015-Jul-22 22:29N 55°29' E 008°25'0 0.0
2015-Jul-22 21:26N 55°29' E 008°25'0 0.0
2015-Jul-22 20:32N 55°29' E 008°25'0 0.0
2015-Jul-22 19:14N 55°29' E 008°25'0 0.0
2015-Jul-22 18:29N 55°29' E 008°25'0 0.0
2015-Jul-22 17:32N 55°29' E 008°25'0 0.0
2015-Jul-22 16:18N 55°29' E 008°25'0 0.0
2015-Jul-22 15:14N 55°29' E 008°25'0 0.0
2015-Jul-22 14:32N 55°29' E 008°25'0 0.0
2015-Jul-22 13:32N 55°29' E 008°25'0 0.0
2015-Jul-22 12:32N 55°29' E 008°25'0 0.0
2015-Jul-22 11:20N 55°29' E 008°25'0 0.0
2015-Jul-22 10:26N 55°29' E 008°25'0 0.0
2015-Jul-22 09:32N 55°29' E 008°25'0 0.0
2015-Jul-22 08:32N 55°29' E 008°25'0 0.0
2015-Jul-22 07:29N 55°29' E 008°25'0 0.0
2015-Jul-22 06:29N 55°29' E 008°25'0 0.0
2015-Jul-22 05:11N 55°29' E 008°25'0 0.0
2015-Jul-22 04:26N 55°29' E 008°25'0 0.0
2015-Jul-22 03:26N 55°29' E 008°25'0 0.0
2015-Jul-22 02:26N 55°29' E 008°25'0 0.0
2015-Jul-22 01:11N 55°29' E 008°25'0 0.0
2015-Jul-22 00:32N 55°29' E 008°25'0 0.0
2015-Jul-21 23:26N 55°29' E 008°25'0 0.0
2015-Jul-21 22:32N 55°29' E 008°25'0 0.0
2015-Jul-21 21:29N 55°29' E 008°25'0 0.0
2015-Jul-21 20:29N 55°29' E 008°25'0 0.0
2015-Jul-21 19:29N 55°29' E 008°25'0 0.0
2015-Jul-21 18:29N 55°29' E 008°25'0 0.0
2015-Jul-21 17:32N 55°29' E 008°25'0 0.0
2015-Jul-21 16:29N 55°29' E 008°25'0 0.0
2015-Jul-21 14:32N 55°29' E 008°25'0 0.0
2015-Jul-21 13:29N 55°29' E 008°25'0 0.0
2015-Jul-21 12:16N 55°29' E 008°25'0 0.0
2015-Jul-21 11:31N 55°29' E 008°25'0 0.0
2015-Jul-21 10:31N 55°29' E 008°25'0 0.0
2015-Jul-21 09:19N 55°29' E 008°25'0 0.0
2015-Jul-21 08:31N 55°29' E 008°25'0 0.0
2015-Jul-21 07:19N 55°29' E 008°25'0 0.0
2015-Jul-21 06:19N 55°29' E 008°25'0 0.0
2015-Jul-21 05:22N 55°29' E 008°25'0 0.0
2015-Jul-21 04:25N 55°29' E 008°25'0 0.0
2015-Jul-21 03:25N 55°29' E 008°25'0 0.0
2015-Jul-21 02:22N 55°29' E 008°25'0 0.0
2015-Jul-21 01:22N 55°29' E 008°25'0 0.0
2015-Jul-21 00:22N 55°29' E 008°25'0 0.0
2015-Jul-20 23:28N 55°29' E 008°25'0 0.0
2015-Jul-20 22:32N 55°29' E 008°25'0 0.0
2015-Jul-20 20:25N 55°29' E 008°25'0 0.0
2015-Jul-20 19:31N 55°29' E 008°25'0 0.0
2015-Jul-20 18:31N 55°29' E 008°25'0 0.0
2015-Jul-20 17:31N 55°29' E 008°25'0 0.0
2015-Jul-20 15:28N 55°29' E 008°25'0 0.0
2015-Jul-20 14:31N 55°29' E 008°25'0 0.0
2015-Jul-20 13:28N 55°29' E 008°25'0 0.0
2015-Jul-20 12:31N 55°29' E 008°25'0 0.0
2015-Jul-20 11:19N 55°29' E 008°25'0 0.0
2015-Jul-20 09:31N 55°29' E 008°25'0 0.0
2015-Jul-20 08:16N 55°29' E 008°25'0 0.0
2015-Jul-20 07:31N 55°29' E 008°25'0 0.0
2015-Jul-20 06:19N 55°29' E 008°25'0 0.0
2015-Jul-20 05:19N 55°29' E 008°25'0 0.0
2015-Jul-20 04:25N 55°29' E 008°25'0 0.0
2015-Jul-20 03:22N 55°29' E 008°25'0 0.0
2015-Jul-20 02:22N 55°29' E 008°25'0 0.0
2015-Jul-20 01:33N 55°29' E 008°25'7 6.7
2015-Jul-20 00:33N 55°26' E 008°14'10 9.8
2015-Jul-19 23:31N 55°23' E 007°57'1010.3
2015-Jul-19 22:33N 55°22' E 007°40'1010.3
2015-Jul-19 21:33N 55°21' E 007°21'1010.3
2015-Jul-19 20:33N 55°21' E 007°04'1010.1
2015-Jul-19 19:33N 55°20' E 006°46'  
Track history (hours):
 
Tides and Currents Weather Stations Pressure Air Temp Water Temp Dewpoint Dewpoint Depression Visibility Wind Speed Wind Dir Waves Ship Positions

Maimiti

Last reported at 2015-Jul-29 15:10 UTC. Time now 2015-Jul-30 16:10 UTC.
Position N 55°35' E 007°02'.

Length 35 m; draft 7 m.

Type: Tug. MMSI: 244850959.

Date/timePositionNaut miles runAvg speedWind from/ knotsBaromVisibWave heightAir tempDewpointWater temp
2015-Jul-29 15:10N 55°35' E 007°02'5 7.8
2015-Jul-29 14:33N 55°34' E 007°10'9 8.1
2015-Jul-29 13:25N 55°30' E 007°25'7 8.2
2015-Jul-29 12:33N 55°27' E 007°37'15 7.4
2015-Jul-29 10:30N 55°25' E 008°03'7 7.0
2015-Jul-29 09:33N 55°26' E 008°15'6 6.1
2015-Jul-29 08:33N 55°29' E 008°25'0 0.2
2015-Jul-29 07:16N 55°29' E 008°25'0 0.0
2015-Jul-29 06:25N 55°29' E 008°25'0 0.0
2015-Jul-29 05:31N 55°29' E 008°25'0 0.0
2015-Jul-29 04:28N 55°29' E 008°25'0 0.0
2015-Jul-29 03:31N 55°29' E 008°25'0 0.0
2015-Jul-29 02:31N 55°29' E 008°25'0 0.0
2015-Jul-29 01:30N 55°29' E 008°25'0 0.0
2015-Jul-29 00:18N 55°29' E 008°25'0 0.0
2015-Jul-28 23:30N 55°29' E 008°25'0 0.0
2015-Jul-28 22:30N 55°29' E 008°25'0 0.0
2015-Jul-28 21:33N 55°29' E 008°25'0 0.0
2015-Jul-28 20:33N 55°29' E 008°25'0 0.0
2015-Jul-28 19:33N 55°29' E 008°25'0 0.0
2015-Jul-28 18:33N 55°29' E 008°25'0 0.0
2015-Jul-28 17:21N 55°29' E 008°25'0 0.0
2015-Jul-28 16:33N 55°29' E 008°25'0 0.0
2015-Jul-28 15:33N 55°29' E 008°25'0 0.0
2015-Jul-28 14:21N 55°29' E 008°25'0 0.0
2015-Jul-28 13:09N 55°29' E 008°25'0 0.0
2015-Jul-28 12:27N 55°29' E 008°25'0 0.0
2015-Jul-28 11:24N 55°29' E 008°25'0 0.0
2015-Jul-28 10:24N 55°29' E 008°25'0 0.0
2015-Jul-28 09:27N 55°29' E 008°25'0 0.0
2015-Jul-28 08:27N 55°29' E 008°25'0 0.0
2015-Jul-28 07:30N 55°29' E 008°25'0 0.0
2015-Jul-28 06:27N 55°29' E 008°25'0 0.0
2015-Jul-28 05:30N 55°29' E 008°25'0 0.0
2015-Jul-28 04:12N 55°29' E 008°25'0 0.0
2015-Jul-28 03:30N 55°29' E 008°25'0 0.0
2015-Jul-28 02:33N 55°29' E 008°25'0 0.0
2015-Jul-28 01:33N 55°29' E 008°25'0 0.0
2015-Jul-28 00:33N 55°29' E 008°25'0 0.0
2015-Jul-27 23:18N 55°29' E 008°25'0 0.0
2015-Jul-27 22:33N 55°29' E 008°25'0 0.0
2015-Jul-27 21:33N 55°29' E 008°25'0 0.0
2015-Jul-27 20:33N 55°29' E 008°25'0 0.0
2015-Jul-27 19:33N 55°29' E 008°25'0 0.0
2015-Jul-27 18:21N 55°29' E 008°25'0 0.0
2015-Jul-27 17:24N 55°29' E 008°25'0 0.0
2015-Jul-27 16:18N 55°29' E 008°25'0 0.0
2015-Jul-27 15:33N 55°29' E 008°25'0 0.0
2015-Jul-27 14:21N 55°29' E 008°25'0 0.0
2015-Jul-27 13:23N 55°29' E 008°25'0 0.0
2015-Jul-27 12:23N 55°29' E 008°25'0 0.0
2015-Jul-27 11:26N 55°29' E 008°25'0 0.0
2015-Jul-27 10:23N 55°29' E 008°25'0 0.0
2015-Jul-27 07:11N 55°29' E 008°25'0 0.0
2015-Jul-27 06:29N 55°29' E 008°25'0 0.0
2015-Jul-27 05:29N 55°29' E 008°25'0 0.0
2015-Jul-27 04:29N 55°29' E 008°25'0 0.0
2015-Jul-27 03:29N 55°29' E 008°25'0 0.0
2015-Jul-27 02:32N 55°29' E 008°25'0 0.0
2015-Jul-27 01:29N 55°29' E 008°25'0 0.0
2015-Jul-27 00:29N 55°29' E 008°25'0 0.0
2015-Jul-26 23:32N 55°29' E 008°25'0 0.0
2015-Jul-26 22:32N 55°29' E 008°25'0 0.0
2015-Jul-26 21:32N 55°29' E 008°25'0 0.0
2015-Jul-26 20:29N 55°29' E 008°25'0 0.0
2015-Jul-26 19:32N 55°29' E 008°25'0 0.0
2015-Jul-26 18:32N 55°29' E 008°25'0 0.0
2015-Jul-26 17:32N 55°29' E 008°25'0 0.0
2015-Jul-26 16:32N 55°29' E 008°25'0 0.0
2015-Jul-26 15:32N 55°29' E 008°25'0 0.0
2015-Jul-26 14:05N 55°29' E 008°25'0 0.0
2015-Jul-26 13:23N 55°29' E 008°25'0 0.0
2015-Jul-26 12:23N 55°29' E 008°25'0 0.0
2015-Jul-26 11:23N 55°29' E 008°25'0 0.0
2015-Jul-26 10:26N 55°29' E 008°25'0 0.0
2015-Jul-26 09:08N 55°29' E 008°25'0 0.0
2015-Jul-26 08:11N 55°29' E 008°25'0 0.0
2015-Jul-26 07:29N 55°29' E 008°25'0 0.0
2015-Jul-26 06:29N 55°29' E 008°25'0 0.0
2015-Jul-26 05:29N 55°29' E 008°25'0 0.0
2015-Jul-26 04:26N 55°29' E 008°25'0 0.0
2015-Jul-26 03:29N 55°29' E 008°25'0 0.0
2015-Jul-26 02:29N 55°29' E 008°25'0 0.0
2015-Jul-26 01:26N 55°29' E 008°25'0 0.0
2015-Jul-26 00:25N 55°29' E 008°25'0 0.0
2015-Jul-25 23:13N 55°29' E 008°25'0 0.0
2015-Jul-25 22:28N 55°29' E 008°25'0 0.0
2015-Jul-25 21:28N 55°29' E 008°25'0 0.0
2015-Jul-25 20:19N 55°29' E 008°25'0 0.0
2015-Jul-25 19:28N 55°29' E 008°25'0 0.0
2015-Jul-25 18:31N 55°29' E 008°25'0 0.0
2015-Jul-25 17:16N 55°29' E 008°25'0 0.0
2015-Jul-25 16:31N 55°29' E 008°25'0 0.0
2015-Jul-25 15:22N 55°29' E 008°25'0 0.0
2015-Jul-25 14:22N 55°29' E 008°25'0 0.0
2015-Jul-25 13:22N 55°29' E 008°25'0 0.0
2015-Jul-25 12:07N 55°29' E 008°25'0 0.0
2015-Jul-25 11:25N 55°29' E 008°25'0 0.0
2015-Jul-25 10:25N 55°29' E 008°25'0 0.0
2015-Jul-25 09:22N 55°29' E 008°25'0 0.0
2015-Jul-25 08:22N 55°29' E 008°25'0 0.0
2015-Jul-25 07:25N 55°29' E 008°25'0 0.0
2015-Jul-25 06:28N 55°29' E 008°25'0 0.0
2015-Jul-25 05:25N 55°29' E 008°25'0 0.0
2015-Jul-25 04:28N 55°29' E 008°25'0 0.0
2015-Jul-25 03:13N 55°29' E 008°25'0 0.0
2015-Jul-25 02:13N 55°29' E 008°25'0 0.0
2015-Jul-25 01:25N 55°29' E 008°25'0 0.0
2015-Jul-25 00:31N 55°29' E 008°25'0 0.0
2015-Jul-24 23:31N 55°29' E 008°25'0 0.0
2015-Jul-24 22:16N 55°29' E 008°25'0 0.0
2015-Jul-24 21:31N 55°29' E 008°25'0 0.0
2015-Jul-24 20:19N 55°29' E 008°25'0 0.0
2015-Jul-24 19:31N 55°29' E 008°25'0 0.0
2015-Jul-24 18:31N 55°29' E 008°25'0 0.0
2015-Jul-24 17:31N 55°29' E 008°25'0 0.0
2015-Jul-24 16:31N 55°29' E 008°25'0 0.0
2015-Jul-24 15:31N 55°29' E 008°25'0 0.0
2015-Jul-24 14:22N 55°29' E 008°25'0 0.0
2015-Jul-24 13:34N 55°29' E 008°25'0 0.0
2015-Jul-24 12:33N 55°29' E 008°25'0 0.0
2015-Jul-24 11:33N 55°29' E 008°25'0 0.0
2015-Jul-24 10:24N 55°29' E 008°25'0 0.0
2015-Jul-24 09:24N 55°29' E 008°25'0 0.0
2015-Jul-24 08:24N 55°29' E 008°25'0 0.0
2015-Jul-24 07:21N 55°29' E 008°25'0 0.0
2015-Jul-24 06:12N 55°29' E 008°25'0 0.0
2015-Jul-24 05:27N 55°29' E 008°25'0 0.0
2015-Jul-24 04:27N 55°29' E 008°25'0 0.0
2015-Jul-24 03:12N 55°29' E 008°25'0 0.0
2015-Jul-24 02:24N 55°29' E 008°25'0 0.0
2015-Jul-24 01:27N 55°29' E 008°25'0 0.0
2015-Jul-24 00:30N 55°29' E 008°25'0 0.0
2015-Jul-23 23:27N 55°29' E 008°25'0 0.0
2015-Jul-23 22:30N 55°29' E 008°25'0 0.0
2015-Jul-23 21:30N 55°29' E 008°25'0 0.0
2015-Jul-23 20:30N 55°29' E 008°25'0 0.0
2015-Jul-23 19:30N 55°29' E 008°25'0 0.0
2015-Jul-23 18:33N 55°29' E 008°25'0 0.0
2015-Jul-23 17:33N 55°29' E 008°25'0 0.0
2015-Jul-23 16:33N 55°29' E 008°25'0 0.0
2015-Jul-23 15:21N 55°29' E 008°25'0 0.0
2015-Jul-23 14:30N 55°29' E 008°25'0 0.0
2015-Jul-23 13:21N 55°29' E 008°25'0 0.0
2015-Jul-23 12:18N 55°29' E 008°25'0 0.0
2015-Jul-23 11:33N 55°29' E 008°25'0 0.0
2015-Jul-23 10:33N 55°29' E 008°25'0 0.0
2015-Jul-23 09:33N 55°29' E 008°25'0 0.0
2015-Jul-23 08:21N 55°29' E 008°25'0 0.0
2015-Jul-23 07:21N 55°29' E 008°25'0 0.0
2015-Jul-23 06:21N 55°29' E 008°25'0 0.0
2015-Jul-23 05:24N 55°29' E 008°25'0 0.0
2015-Jul-23 04:24N 55°29' E 008°25'0 0.0
2015-Jul-23 03:27N 55°29' E 008°25'0 0.0
2015-Jul-23 02:27N 55°29' E 008°25'0 0.0
2015-Jul-23 01:12N 55°29' E 008°25'0 0.0
2015-Jul-23 00:29N 55°29' E 008°25'0 0.0
2015-Jul-22 23:23N 55°29' E 008°25'0 0.0
2015-Jul-22 22:29N 55°29' E 008°25'0 0.0
2015-Jul-22 21:26N 55°29' E 008°25'0 0.0
2015-Jul-22 20:32N 55°29' E 008°25'0 0.0
2015-Jul-22 19:14N 55°29' E 008°25'0 0.0
2015-Jul-22 18:29N 55°29' E 008°25'0 0.0
2015-Jul-22 17:32N 55°29' E 008°25'0 0.0
2015-Jul-22 16:18N 55°29' E 008°25'0 0.0
2015-Jul-22 15:14N 55°29' E 008°25'0 0.0
2015-Jul-22 14:32N 55°29' E 008°25'0 0.0
2015-Jul-22 13:32N 55°29' E 008°25'0 0.0
2015-Jul-22 12:32N 55°29' E 008°25'0 0.0
2015-Jul-22 11:20N 55°29' E 008°25'0 0.0
2015-Jul-22 10:26N 55°29' E 008°25'0 0.0
2015-Jul-22 09:32N 55°29' E 008°25'0 0.0
2015-Jul-22 08:32N 55°29' E 008°25'0 0.0
2015-Jul-22 07:29N 55°29' E 008°25'0 0.0
2015-Jul-22 06:29N 55°29' E 008°25'0 0.0
2015-Jul-22 05:11N 55°29' E 008°25'0 0.0
2015-Jul-22 04:26N 55°29' E 008°25'0 0.0
2015-Jul-22 03:26N 55°29' E 008°25'0 0.0
2015-Jul-22 02:26N 55°29' E 008°25'0 0.0
2015-Jul-22 01:11N 55°29' E 008°25'0 0.0
2015-Jul-22 00:32N 55°29' E 008°25'0 0.0
2015-Jul-21 23:26N 55°29' E 008°25'0 0.0
2015-Jul-21 22:32N 55°29' E 008°25'0 0.0
2015-Jul-21 21:29N 55°29' E 008°25'0 0.0
2015-Jul-21 20:29N 55°29' E 008°25'0 0.0
2015-Jul-21 19:29N 55°29' E 008°25'0 0.0
2015-Jul-21 18:29N 55°29' E 008°25'0 0.0
2015-Jul-21 17:32N 55°29' E 008°25'0 0.0
2015-Jul-21 16:29N 55°29' E 008°25'0 0.0
2015-Jul-21 14:32N 55°29' E 008°25'0 0.0
2015-Jul-21 13:29N 55°29' E 008°25'0 0.0
2015-Jul-21 12:16N 55°29' E 008°25'0 0.0
2015-Jul-21 11:31N 55°29' E 008°25'0 0.0
2015-Jul-21 10:31N 55°29' E 008°25'0 0.0
2015-Jul-21 09:19N 55°29' E 008°25'0 0.0
2015-Jul-21 08:31N 55°29' E 008°25'0 0.0
2015-Jul-21 07:19N 55°29' E 008°25'0 0.0
2015-Jul-21 06:19N 55°29' E 008°25'0 0.0
2015-Jul-21 05:22N 55°29' E 008°25'0 0.0
2015-Jul-21 04:25N 55°29' E 008°25'0 0.0
2015-Jul-21 03:25N 55°29' E 008°25'0 0.0
2015-Jul-21 02:22N 55°29' E 008°25'0 0.0
2015-Jul-21 01:22N 55°29' E 008°25'0 0.0
2015-Jul-21 00:22N 55°29' E 008°25'0 0.0
2015-Jul-20 23:28N 55°29' E 008°25'0 0.0
2015-Jul-20 22:32N 55°29' E 008°25'0 0.0
2015-Jul-20 20:25N 55°29' E 008°25'0 0.0
2015-Jul-20 19:31N 55°29' E 008°25'0 0.0
2015-Jul-20 18:31N 55°29' E 008°25'0 0.0
2015-Jul-20 17:31N 55°29' E 008°25'0 0.0
2015-Jul-20 15:28N 55°29' E 008°25'0 0.0
2015-Jul-20 14:31N 55°29' E 008°25'0 0.0
2015-Jul-20 13:28N 55°29' E 008°25'0 0.0
2015-Jul-20 12:31N 55°29' E 008°25'0 0.0
2015-Jul-20 11:19N 55°29' E 008°25'0 0.0
2015-Jul-20 09:31N 55°29' E 008°25'0 0.0
2015-Jul-20 08:16N 55°29' E 008°25'0 0.0
2015-Jul-20 07:31N 55°29' E 008°25'0 0.0
2015-Jul-20 06:19N 55°29' E 008°25'0 0.0
2015-Jul-20 05:19N 55°29' E 008°25'0 0.0
2015-Jul-20 04:25N 55°29' E 008°25'0 0.0
2015-Jul-20 03:22N 55°29' E 008°25'0 0.0
2015-Jul-20 02:22N 55°29' E 008°25'0 0.0
2015-Jul-20 01:33N 55°29' E 008°25'7 6.7
2015-Jul-20 00:33N 55°26' E 008°14'10 9.8
2015-Jul-19 23:31N 55°23' E 007°57'1010.3
2015-Jul-19 22:33N 55°22' E 007°40'1010.3
2015-Jul-19 21:33N 55°21' E 007°21'1010.3
2015-Jul-19 20:33N 55°21' E 007°04'1010.1
2015-Jul-19 19:33N 55°20' E 006°46'  

Dump ship's entire track history